NCAR-RAP Real-Time Weather Data

Output produced by METARs form (20 February 2019  18:16 UTC)
found at http://weather.rap.ucar.edu/surface/
 
RJTY 201756Z AUTO 02006KT 10SM CLR 04/00 A2995 RMK AO2 SLP148 60002 T00390002 10116 20039 51005 FZRANO $
RJTY 201656Z AUTO 03013KT 10SM CLR 07/01 A2995 RMK AO2 SLP146 T00650008 FZRANO $
RJTY 201556Z AUTO 03012KT 10SM BKN060 08/04 A2995 RMK AO2 SLP146 T00800042 FZRANO $
RJTY 201456Z AUTO 06008KT 10SM FEW006 OVC045 09/09 A2994 RMK AO2 RAE00 SLP142 P0000 60002 T00930088 401900028 51007 FZRANO $
RJTY 201445Z AUTO 05007KT 10SM FEW006 OVC043 09/09 A2994 RMK AO2 RAE00 SLP142 FZRANO $
RJTY 201400Z AUTO 04008KT 6SM BR OVC006 10/10 A2994 RMK AO2 RAE00 CIG 004 RWY18 SLP143 FZRANO $
RJTY 201356Z AUTO 04007KT 7SM -RA OVC006 10/10 A2994 RMK AO2 RAE05RAB14E18RAB20E30RAB32 CIG 005 RWY18 SLP143 P0002 T01000095 FZRANO $
RJTY 201347Z AUTO 04011KT 10SM -RA OVC006 10/10 A2994 RMK AO2 RAE05RAB14E18RAB20E30RAB32 CIG 005 RWY18 SLP143 FZRANO $
RJTY 201332Z AUTO 04012KT 8SM -RA OVC005 10/10 A2994 RMK AO2 RAE05RAB14E18RAB20E30RAB32 OVC V BKN SLP143 FZRANO $
RJTY 201330Z AUTO 04013KT 8SM BKN005 OVC009 10/10 A2994 RMK AO2 RAE05RAB14E18RAB20E30 SLP143 FZRANO $
RJTY 201320Z AUTO 03012KT 6SM -RA BR BKN006 BKN009 OVC014 10/10 A2994 RMK AO2 RAE05RAB14E18RAB20 CIG 006V008 CIG 004 RWY18 SLP143 FZRANO $
RJTY 201318Z AUTO 03010KT 6SM BR BKN006 BKN009 OVC014 10/10 A2994 RMK AO2 RAE05RAB14E18 CIG 006V008 CIG 004 RWY18 SLP143 FZRANO $
RJTY 201314Z AUTO 04009KT 5SM -RA BR BKN006 OVC011 11/10 A2993 RMK AO2 RAE05RAB14 CIG 006V008 CIG 004 RWY18 SLP140 FZRANO $
RJTY 201305Z AUTO 04009KT 7SM BKN008 BKN014 OVC022 11/10 A2993 RMK AO2 RAE05 CIG 007V013 CIG 004 RWY18 SLP140 FZRANO $
RJTY 201300Z 04008KT 8SM -RA SCT007 BKN013 OVC022 11/10 A2993 RMK CIG 007V015 BKN V OVC CIG 004 RWY18 SLP140 FZRANO $
RJTY 201256Z AUTO 04010KT 8SM -RA BKN007 OVC013 11/10 A2993 RMK AO2 RAB48 CIG 007V015 BKN V SCT CIG 004 RWY18 SLP140 P0000 T01080100 FZRANO $
RJTY 201248Z AUTO 04009KT 9SM -RA SCT007 OVC015 11/10 A2993 RMK AO2 RAB48 CIG 010V015 CIG 004 RWY18 SLP140 FZRANO $
RJTY 201241Z AUTO 02010KT 10SM SCT010 OVC015 11/10 A2994 RMK AO2 CIG 004 RWY18 SLP143 FZRANO $
RJTY 201211Z AUTO 01008KT 10SM OVC019 11/10 A2992 RMK AO2 CIG 018 RWY18 SLP137 FZRANO $
RJTY 201156Z AUTO 03006KT 10SM OVC020 12/10 A2992 RMK AO2 DZB45E54 CIG 018 RWY18 SLP137 P0000 60000 T01160098 10176 20114 52010 FZRANO $
RJTY 201154Z AUTO 03005KT 10SM OVC020 12/10 A2992 RMK AO2 DZB45E54 CIG 018 RWY18 SLP137 FZRANO $
RJTY 201145Z AUTO 03005KT 10SM -DZ OVC020 12/10 A2992 RMK AO2 DZB45 OVC V BKN SLP137 FZRANO $
RJTY 201056Z AUTO 16007KT 10SM SCT023 OVC029 12/09 A2990 RMK AO2 RAB21E40DZB40E41RAB44E54 CIG 021V029 CIG 027 RWY18 SLP131 P0000 T01230091 FZRANO $
RJTY 201054Z AUTO 16007KT 10SM SCT023 OVC029 12/09 A2990 RMK AO2 RAB21E40DZB40E41RAB44E54 CIG 021V029 CIG 027 RWY18 SLP131 FZRANO $
RJTY 201044Z AUTO 14004KT 10SM -RA BKN021 OVC029 12/10 A2991 RMK AO2 RAB21E40DZB40E41RAB44 SLP135 FZRANO $
RJTY 201041Z AUTO 00000KT 10SM BKN021 OVC029 12/10 A2991 RMK AO2 RAB21E40DZB40E41 CIG 017 RWY18 SLP135 FZRANO $
RJTY 201021Z AUTO 34005KT 10SM -RA OVC021 13/09 A2991 RMK AO2 RAB21 CIG 017 RWY18 SLP135 FZRANO $
RJTY 200956Z AUTO 18008KT 10SM OVC023 13/10 A2990 RMK AO2 RAE0856RAB01E34 CIG 019 RWY18 SLP132 P0000 T01280096 FZRANO $
RJTY 200949Z AUTO 17007KT 10SM BKN022 OVC032 13/10 A2990 RMK AO2 RAE0856RAB01E34 CIG 019 RWY18 SLP132 FZRANO $
RJTY 200934Z AUTO 18007KT 10SM SCT024 OVC030 13/10 A2990 RMK AO2 RAE0856RAB01E34 SLP132 FZRANO $
RJTY 200931Z AUTO 18009KT 10SM -RA FEW024 OVC030 13/10 A2990 RMK AO2 RAE0856RAB01 SLP132 FZRANO $
RJTY 200916Z AUTO 16008KT 10SM -RA BKN029 OVC041 13/10 A2989 RMK AO2 RAE0856RAB01 CIG 025 RWY18 SLP129 FZRANO $
RJTY 200901Z AUTO 16007KT 10SM -RA BKN030 OVC041 14/09 A2989 RMK AO2 RAE0856RAB01 SLP129 FZRANO $
RJTY 200857Z AUTO 16010KT 10SM BKN030 OVC041 14/09 A2989 RMK AO2 RAE56 SLP129 FZRANO $
RJTY 200856Z AUTO 16008KT 10SM -RA BKN028 OVC041 14/09 A2989 RMK AO2 RAB45 BKN V OVC CIG 025 RWY18 SLP129 P0000 60000 T01370093 52016 FZRANO $
RJTY 200845Z AUTO 16008KT 10SM -RA OVC028 14/09 A2988 RMK AO2 RAB45 CIG 025 RWY18 SLP125 FZRANO $
RJTY 200826Z AUTO 16008KT 10SM BKN027 BKN047 15/09 A2988 RMK AO2 CIG 027V047 BKN027 V FEW CIG 025 RWY18 SLP124 FZRANO $
RJTY 200756Z AUTO 14008KT 10SM FEW047 OVC055 15/09 A2986 RMK AO2 SLP118 T01490090 FZRANO $
RJTY 200656Z AUTO 15008KT 10SM FEW048 BKN060 16/09 A2986 RMK AO2 SLP117 T01640089 FZRANO $
RJTY 200556Z AUTO 16008KT 10SM SCT045 OVC065 18/07 A2984 RMK AO2 SLP110 T01760068 10190 20114 55015 FZRANO $
RJTY 200456Z AUTO 13006KT 10SM CLR 19/06 A2984 RMK AO2 SLP110 T01850060 FZRANO $
RJTY 200356Z AUTO 11009KT 10SM OVC070 18/06 A2986 RMK AO2 SLP116 T01800056 FZRANO $
RJTY 200256Z AUTO 04013KT 10SM CLR 18/05 A2988 RMK AO2 SLP123 T01820051 58000 FZRANO $
RJTY 200156Z AUTO 04013KT 10SM CLR 17/06 A2988 RMK AO2 SLP124 T01670056 FZRANO $
RJTY 200056Z AUTO 02006KT 10SM CLR 14/07 A2989 RMK AO2 SLP128 T01420073 FZRANO $
RJTY 192356Z AUTO 09005KT 10SM CLR 11/08 A2989 RMK AO2 SLP129 70002 T01130078 10113 20028 52010 FZRANO $
RJTY 192256Z AUTO 00000KT 10SM CLR 08/08 A2988 RMK AO2 SLP126 T00780077 FZRANO $
RJTY 192156Z AUTO 00000KT 6SM BR CLR 04/04 A2987 RMK AO2 SLP124 T00430042 FZRANO $
RJTY 192056Z AUTO 00000KT 7SM CLR 03/03 A2985 RMK AO2 SLP117 T00340031 53004 FZRANO $
RJTY 191956Z AUTO 00000KT 8SM CLR 06/05 A2985 RMK AO2 SLP116 T00560052 FZRANO $
RJTY 191856Z AUTO 27005KT 10SM CLR 06/06 A2984 RMK AO2 SLP112 T00620058 FZRANO $
RJTY 191756Z AUTO 33003KT 6SM BR CLR 06/05 A2984 RMK AO2 VIS 2 RWY18 SLP112 T00560050 10068 20042 57015 FZRANO $
RJTY 191656Z AUTO 22003KT 5SM BR FEW016 06/05 A2986 RMK AO2 SLP119 T00570048 FZRANO $
RJTY 191641Z AUTO 00000KT 6SM BR BKN015 06/05 A2987 RMK AO2 BKN V OVC CIG 014 RWY18 SLP122 FZRANO $
RJTY 191611Z AUTO 27003KT 7SM OVC014 07/05 A2987 RMK AO2 SLP122 FZRANO $
RJTY 191556Z AUTO 00000KT 7SM OVC015 07/05 A2987 RMK AO2 CIG 013 RWY18 SLP122 T00650051 FZRANO $
RJTY 191456Z AUTO 36003KT 8SM OVC015 06/04 A2989 RMK AO2 CIG 014 RWY18 SLP129 T00630043 401000027 57034 FZRANO $
RJTY 191356Z AUTO 01006KT 7SM BKN018 05/04 A2992 RMK AO2 BKN V SCT CIG 016 RWY18 SLP140 T00520039 FZRANO $
RJTY 191256Z AUTO 33004KT 10SM BKN043 07/04 A2995 RMK AO2 SLP149 T00650035 FZRANO $
RJTY 191156Z AUTO 35005KT 7SM OVC043 06/04 A2999 RMK AO2 SLP164 60002 T00640042 10099 20059 57030 FZRANO $
RJTY 191056Z AUTO 02004KT 9SM FEW020 BKN040 06/04 A3000 RMK AO2 RAE49 SLP168 P0002 T00640041 FZRANO $
RJTY 191049Z AUTO 36003KT 10SM FEW020 BKN046 07/04 A3001 RMK AO2 RAE49 PRESFR SLP171 FZRANO $
RJTY 190956Z AUTO 36003KT 9SM -RA BKN044 OVC060 07/03 A3007 RMK AO2 DZB14E15RAB15 SLP192 P0000 T00740029 FZRANO $
RJTY 190914Z AUTO 01006KT 10SM -DZ OVC045 08/03 A3009 RMK AO2 DZB14 SLP198 FZRANO $
RJTY 190856Z AUTO 05005KT 10SM OVC047 08/03 A3008 RMK AO2 DZB04E14RAB19E31DZB31E38 SLP194 P0000 60000 T00780031 57024 FZRANO $
RJTY 190838Z AUTO 02006KT 10SM OVC049 08/03 A3009 RMK AO2 DZB04E14RAB19E31DZB31E38 SLP198 FZRANO $
RJTY 190819Z AUTO 03005KT 10SM -RA OVC050 09/03 A3008 RMK AO2 DZB04E14RAB19 SLP194 FZRANO $
RJTY 190814Z AUTO 03004KT 10SM OVC050 09/02 A3008 RMK AO2 DZB04E14 SLP194 FZRANO $
RJTY 190804Z AUTO 05004KT 10SM -DZ BKN049 OVC060 09/02 A3009 RMK AO2 DZB04 SLP198 FZRANO $
RJTY 190756Z AUTO 04004KT 10SM BKN049 09/01 A3009 RMK AO2 SLP198 T00920014 FZRANO $
RJTY 190656Z AUTO 00000KT 10SM FEW042 OVC055 10/01 A3012 RMK AO2 SLP208 T00980009 FZRANO $
RJTY 190556Z AUTO 36005KT 10SM OVC043 10/01 A3015 RMK AO2 SLP218 T00990008 10100 20074 57030 FZRANO $
RJTY 190456Z AUTO 10004KT 10SM OVC044 10/01 A3016 RMK AO2 SLP222 T00960005 FZRANO $
RJTY 190356Z AUTO 16004KT 10SM SCT045 BKN050 OVC100 09/00 A3020 RMK AO2 SLP235 T00930002 FZRANO $
RJTY 190256Z AUTO 16005KT 10SM BKN041 BKN085 09/00 A3024 RMK AO2 SLP249 T00901001 58032 FZRANO $
RJTY 190156Z AUTO 16003KT 10SM CLR 09/M01 A3029 RMK AO2 SLP266 T00891012 FZRANO $
RJTY 190056Z AUTO 00000KT 10SM FEW110 08/M01 A3032 RMK AO2 SLP277 T00811009 FZRANO $
RJTY 182356Z AUTO 00000KT 10SM SCT130 SCT170 07/00 A3034 RMK AO2 SLP283 T00731004 10073 20044 50004 FZRANO $
RJTY 182256Z AUTO 00000KT 10SM FEW140 06/00 A3035 RMK AO2 SLP286 T00601005 FZRANO $
RJTY 182156Z AUTO 00000KT 10SM OVC120 06/M01 A3034 RMK AO2 SLP283 T00551012 FZRANO $
RJTY 182056Z AUTO 00000KT 10SM OVC110 05/M01 A3032 RMK AO2 SLP276 T00541007 55004 FZRANO $
RJTY 181956Z AUTO 28005KT 10SM OVC120 05/M01 A3034 RMK AO2 SLP282 T00531010 FZRANO $
RJTY 181856Z AUTO 00000KT 10SM OVC130 05/M01 A3032 RMK AO2 SLP275 T00451007 FZRANO $
RJTY 181756Z AUTO 00000KT 10SM FEW038 OVC150 05/M01 A3033 RMK AO2 SLP278 T00481012 10061 20027 58005 FZRANO $
RJTY 181656Z AUTO 28003KT 10SM FEW038 OVC150 04/M01 A3034 RMK AO2 SLP281 T00351015 FZRANO $
RJTY 181556Z AUTO 29003KT 10SM SCT160 04/M01 A3035 RMK AO2 SLP285 T00421006 FZRANO $
RJTY 181456Z AUTO 00000KT 10SM SCT170 04/M01 A3035 RMK AO2 SLP285 T00441008 401351017 50005 FZRANO $
RJTY 181356Z AUTO 29007KT 10SM SCT180 05/00 A3035 RMK AO2 SLP285 T00491001 FZRANO $
RJTY 181256Z AUTO 00000KT 10SM SCT190 05/00 A3035 RMK AO2 SLP286 T00500000 FZRANO $
RJTY 181156Z AUTO 26004KT 10SM CLR 06/00 A3033 RMK AO2 SLP280 T00610002 10132 20061 52018 FZRANO $
RJTY 181056Z AUTO 26004KT 10SM CLR 08/01 A3031 RMK AO2 SLP274 T00760014 FZRANO $
RJTY 180956Z AUTO 14004KT 10SM CLR 09/02 A3030 RMK AO2 SLP271 T00850023 FZRANO $
RJTY 180856Z AUTO 18005KT 10SM CLR 09/01 A3028 RMK AO2 SLP264 T00870011 52018 FZRANO $
RJTY 180756Z AUTO 18008KT 10SM CLR 11/00 A3025 RMK AO2 SLP253 T01091003 FZRANO $
RJTY 180656Z AUTO 15006KT 10SM CLR 13/M02 A3024 RMK AO2 SLP249 T01281023 FZRANO $